sensor_id;sensor_type;location;lat;lon;timestamp;P1;durP1;ratioP1;P2;durP2;ratioP2
70970;SDS011;58632;51.718;19.446;2023-06-10T00:02:04;9.30;;;7.50;;
70970;SDS011;58632;51.718;19.446;2023-06-10T00:04:31;9.50;;;6.70;;
70970;SDS011;58632;51.718;19.446;2023-06-10T00:06:56;8.70;;;6.90;;
70970;SDS011;58632;51.718;19.446;2023-06-10T00:09:22;10.10;;;6.80;;
70970;SDS011;58632;51.718;19.446;2023-06-10T00:11:47;9.00;;;7.10;;
70970;SDS011;58632;51.718;19.446;2023-06-10T00:14:13;11.70;;;6.70;;
70970;SDS011;58632;51.718;19.446;2023-06-10T00:16:39;9.50;;;6.90;;
70970;SDS011;58632;51.718;19.446;2023-06-10T00:19:04;10.30;;;6.70;;
70970;SDS011;58632;51.718;19.446;2023-06-10T00:21:31;7.90;;;6.30;;
70970;SDS011;58632;51.718;19.446;2023-06-10T00:24:05;12.60;;;6.50;;
70970;SDS011;58632;51.718;19.446;2023-06-10T00:26:32;9.50;;;6.60;;
70970;SDS011;58632;51.718;19.446;2023-06-10T00:28:58;9.50;;;6.40;;
70970;SDS011;58632;51.718;19.446;2023-06-10T00:31:25;8.70;;;6.90;;
70970;SDS011;58632;51.718;19.446;2023-06-10T00:33:53;9.60;;;6.90;;
70970;SDS011;58632;51.718;19.446;2023-06-10T00:36:19;9.20;;;6.70;;
70970;SDS011;58632;51.718;19.446;2023-06-10T00:38:44;8.30;;;6.30;;
70970;SDS011;58632;51.718;19.446;2023-06-10T00:41:10;8.60;;;6.40;;
70970;SDS011;58632;51.718;19.446;2023-06-10T00:43:35;8.30;;;7.10;;
70970;SDS011;58632;51.718;19.446;2023-06-10T00:46:01;7.20;;;6.40;;
70970;SDS011;58632;51.718;19.446;2023-06-10T00:48:30;8.00;;;6.80;;
70970;SDS011;58632;51.718;19.446;2023-06-10T00:50:56;10.50;;;7.00;;
70970;SDS011;58632;51.718;19.446;2023-06-10T00:53:22;8.80;;;7.00;;
70970;SDS011;58632;51.718;19.446;2023-06-10T00:55:48;15.60;;;7.50;;
70970;SDS011;58632;51.718;19.446;2023-06-10T00:58:14;10.30;;;7.00;;
70970;SDS011;58632;51.718;19.446;2023-06-10T01:00:40;9.60;;;7.10;;
70970;SDS011;58632;51.718;19.446;2023-06-10T01:03:06;9.60;;;6.90;;
70970;SDS011;58632;51.718;19.446;2023-06-10T01:05:36;9.90;;;6.70;;
70970;SDS011;58632;51.718;19.446;2023-06-10T01:08:09;9.20;;;6.80;;
70970;SDS011;58632;51.718;19.446;2023-06-10T01:10:53;9.10;;;7.40;;
70970;SDS011;58632;51.718;19.446;2023-06-10T01:13:23;7.40;;;6.60;;
70970;SDS011;58632;51.718;19.446;2023-06-10T01:15:51;8.60;;;6.90;;
70970;SDS011;58632;51.718;19.446;2023-06-10T01:18:17;10.80;;;6.70;;
70970;SDS011;58632;51.718;19.446;2023-06-10T01:20:46;11.00;;;6.70;;
70970;SDS011;58632;51.718;19.446;2023-06-10T01:23:14;9.80;;;6.90;;
70970;SDS011;58632;51.718;19.446;2023-06-10T01:25:41;9.60;;;7.30;;
70970;SDS011;58632;51.718;19.446;2023-06-10T01:28:14;8.50;;;7.00;;
70970;SDS011;58632;51.718;19.446;2023-06-10T01:33:59;10.30;;;7.60;;
70970;SDS011;58632;51.718;19.446;2023-06-10T01:36:27;7.80;;;7.00;;
70970;SDS011;58632;51.718;19.446;2023-06-10T01:38:54;8.00;;;6.70;;
70970;SDS011;58632;51.718;19.446;2023-06-10T01:41:23;7.90;;;7.10;;
70970;SDS011;58632;51.718;19.446;2023-06-10T01:43:50;9.10;;;7.10;;
70970;SDS011;58632;51.718;19.446;2023-06-10T01:46:15;9.40;;;7.60;;
70970;SDS011;58632;51.718;19.446;2023-06-10T01:48:44;10.80;;;7.50;;
70970;SDS011;58632;51.718;19.446;2023-06-10T01:51:10;8.40;;;7.50;;
70970;SDS011;58632;51.718;19.446;2023-06-10T01:53:37;9.00;;;7.30;;
70970;SDS011;58632;51.718;19.446;2023-06-10T01:56:03;8.50;;;7.70;;
70970;SDS011;58632;51.718;19.446;2023-06-10T01:58:29;9.80;;;7.40;;
70970;SDS011;58632;51.718;19.446;2023-06-10T02:00:55;8.00;;;6.80;;
70970;SDS011;58632;51.718;19.446;2023-06-10T02:03:21;10.10;;;7.50;;
70970;SDS011;58632;51.718;19.446;2023-06-10T02:05:46;7.90;;;7.00;;
70970;SDS011;58632;51.718;19.446;2023-06-10T02:08:12;9.00;;;7.40;;
70970;SDS011;58632;51.718;19.446;2023-06-10T02:10:38;8.70;;;7.30;;
70970;SDS011;58632;51.718;19.446;2023-06-10T02:13:03;8.20;;;7.30;;
70970;SDS011;58632;51.718;19.446;2023-06-10T02:15:29;8.00;;;7.20;;
70970;SDS011;58632;51.718;19.446;2023-06-10T02:17:55;8.40;;;7.30;;
70970;SDS011;58632;51.718;19.446;2023-06-10T02:20:21;8.60;;;7.40;;
70970;SDS011;58632;51.718;19.446;2023-06-10T02:22:47;9.90;;;7.20;;
70970;SDS011;58632;51.718;19.446;2023-06-10T02:25:12;7.80;;;6.90;;
70970;SDS011;58632;51.718;19.446;2023-06-10T02:27:38;9.90;;;7.40;;
70970;SDS011;58632;51.718;19.446;2023-06-10T02:30:04;8.60;;;7.60;;
70970;SDS011;58632;51.718;19.446;2023-06-10T02:32:30;8.60;;;7.10;;
70970;SDS011;58632;51.718;19.446;2023-06-10T02:34:56;10.10;;;7.70;;
70970;SDS011;58632;51.718;19.446;2023-06-10T02:37:22;10.40;;;7.50;;
70970;SDS011;58632;51.718;19.446;2023-06-10T02:39:48;9.00;;;7.00;;
70970;SDS011;58632;51.718;19.446;2023-06-10T02:42:14;7.70;;;6.90;;
70970;SDS011;58632;51.718;19.446;2023-06-10T02:44:42;9.00;;;7.00;;
70970;SDS011;58632;51.718;19.446;2023-06-10T02:47:07;7.70;;;6.70;;
70970;SDS011;58632;51.718;19.446;2023-06-10T02:49:33;9.60;;;7.10;;
70970;SDS011;58632;51.718;19.446;2023-06-10T02:52:01;9.80;;;7.30;;
70970;SDS011;58632;51.718;19.446;2023-06-10T02:54:27;9.80;;;6.70;;
70970;SDS011;58632;51.718;19.446;2023-06-10T02:56:53;11.40;;;7.60;;
70970;SDS011;58632;51.718;19.446;2023-06-10T02:59:21;9.50;;;6.60;;
70970;SDS011;58632;51.718;19.446;2023-06-10T03:01:46;9.80;;;6.90;;
70970;SDS011;58632;51.718;19.446;2023-06-10T03:04:12;9.00;;;7.60;;
70970;SDS011;58632;51.718;19.446;2023-06-10T03:06:39;8.00;;;6.80;;
70970;SDS011;58632;51.718;19.446;2023-06-10T03:09:10;10.30;;;7.10;;
70970;SDS011;58632;51.718;19.446;2023-06-10T03:11:36;11.90;;;6.90;;
70970;SDS011;58632;51.718;19.446;2023-06-10T03:14:02;8.70;;;6.60;;
70970;SDS011;58632;51.718;19.446;2023-06-10T03:16:27;8.90;;;6.70;;
70970;SDS011;58632;51.718;19.446;2023-06-10T03:18:53;9.90;;;7.00;;
70970;SDS011;58632;51.718;19.446;2023-06-10T03:21:19;7.70;;;6.90;;
70970;SDS011;58632;51.718;19.446;2023-06-10T03:23:45;8.00;;;7.20;;
70970;SDS011;58632;51.718;19.446;2023-06-10T03:26:10;9.50;;;7.60;;
70970;SDS011;58632;51.718;19.446;2023-06-10T03:28:37;10.50;;;7.90;;
70970;SDS011;58632;51.718;19.446;2023-06-10T03:31:05;9.00;;;7.50;;
70970;SDS011;58632;51.718;19.446;2023-06-10T03:33:31;10.40;;;7.70;;
70970;SDS011;58632;51.718;19.446;2023-06-10T03:35:56;13.80;;;7.70;;
70970;SDS011;58632;51.718;19.446;2023-06-10T03:38:22;11.40;;;8.40;;
70970;SDS011;58632;51.718;19.446;2023-06-10T03:40:47;12.50;;;8.50;;
70970;SDS011;58632;51.718;19.446;2023-06-10T03:43:13;9.40;;;7.80;;
70970;SDS011;58632;51.718;19.446;2023-06-10T03:45:39;10.60;;;8.30;;
70970;SDS011;58632;51.718;19.446;2023-06-10T03:48:06;10.50;;;8.50;;
70970;SDS011;58632;51.718;19.446;2023-06-10T03:50:33;11.70;;;9.60;;
70970;SDS011;58632;51.718;19.446;2023-06-10T03:55:25;9.70;;;8.60;;
70970;SDS011;58632;51.718;19.446;2023-06-10T03:57:51;10.50;;;9.10;;
70970;SDS011;58632;51.718;19.446;2023-06-10T04:00:17;10.90;;;9.70;;
70970;SDS011;58632;51.718;19.446;2023-06-10T04:02:43;11.50;;;10.00;;
70970;SDS011;58632;51.718;19.446;2023-06-10T04:05:18;11.60;;;10.40;;
70970;SDS011;58632;51.718;19.446;2023-06-10T04:07:47;12.50;;;10.20;;
70970;SDS011;58632;51.718;19.446;2023-06-10T04:10:13;12.90;;;10.40;;
70970;SDS011;58632;51.718;19.446;2023-06-10T04:12:40;15.80;;;10.90;;
70970;SDS011;58632;51.718;19.446;2023-06-10T04:17:32;11.10;;;10.00;;
70970;SDS011;58632;51.718;19.446;2023-06-10T04:19:57;10.60;;;9.50;;
70970;SDS011;58632;51.718;19.446;2023-06-10T04:22:24;14.40;;;9.60;;
70970;SDS011;58632;51.718;19.446;2023-06-10T04:24:49;9.40;;;8.30;;
70970;SDS011;58632;51.718;19.446;2023-06-10T04:27:17;10.10;;;8.30;;
70970;SDS011;58632;51.718;19.446;2023-06-10T04:29:42;12.30;;;8.20;;
70970;SDS011;58632;51.718;19.446;2023-06-10T04:32:08;11.00;;;7.90;;
70970;SDS011;58632;51.718;19.446;2023-06-10T04:34:34;8.80;;;8.00;;
70970;SDS011;58632;51.718;19.446;2023-06-10T04:37:04;10.20;;;6.50;;
70970;SDS011;58632;51.718;19.446;2023-06-10T04:39:30;10.50;;;7.50;;
70970;SDS011;58632;51.718;19.446;2023-06-10T04:41:55;8.70;;;6.10;;
70970;SDS011;58632;51.718;19.446;2023-06-10T04:44:21;8.80;;;6.10;;
70970;SDS011;58632;51.718;19.446;2023-06-10T04:46:49;9.50;;;6.10;;
70970;SDS011;58632;51.718;19.446;2023-06-10T04:49:14;8.60;;;5.40;;
70970;SDS011;58632;51.718;19.446;2023-06-10T04:51:41;10.30;;;5.60;;
70970;SDS011;58632;51.718;19.446;2023-06-10T04:54:07;7.40;;;5.30;;
70970;SDS011;58632;51.718;19.446;2023-06-10T04:56:32;9.50;;;5.50;;
70970;SDS011;58632;51.718;19.446;2023-06-10T04:58:58;8.90;;;5.40;;
70970;SDS011;58632;51.718;19.446;2023-06-10T05:01:25;7.30;;;5.80;;
70970;SDS011;58632;51.718;19.446;2023-06-10T05:03:50;10.80;;;5.90;;
70970;SDS011;58632;51.718;19.446;2023-06-10T05:06:16;11.70;;;6.40;;
70970;SDS011;58632;51.718;19.446;2023-06-10T05:11:07;6.80;;;5.50;;
70970;SDS011;58632;51.718;19.446;2023-06-10T05:13:33;8.70;;;5.60;;
70970;SDS011;58632;51.718;19.446;2023-06-10T05:15:59;9.60;;;5.70;;
70970;SDS011;58632;51.718;19.446;2023-06-10T05:18:25;11.00;;;5.60;;
70970;SDS011;58632;51.718;19.446;2023-06-10T05:20:50;8.60;;;5.10;;
70970;SDS011;58632;51.718;19.446;2023-06-10T05:25:41;8.50;;;5.40;;
70970;SDS011;58632;51.718;19.446;2023-06-10T05:28:07;10.50;;;5.10;;
70970;SDS011;58632;51.718;19.446;2023-06-10T05:30:38;8.40;;;4.90;;
70970;SDS011;58632;51.718;19.446;2023-06-10T05:33:06;9.20;;;5.20;;
70970;SDS011;58632;51.718;19.446;2023-06-10T05:35:32;9.00;;;5.40;;
70970;SDS011;58632;51.718;19.446;2023-06-10T05:37:58;6.40;;;5.30;;
70970;SDS011;58632;51.718;19.446;2023-06-10T05:40:23;7.70;;;4.70;;
70970;SDS011;58632;51.718;19.446;2023-06-10T05:42:49;6.40;;;5.10;;
70970;SDS011;58632;51.718;19.446;2023-06-10T05:45:14;9.30;;;5.30;;
70970;SDS011;58632;51.718;19.446;2023-06-10T05:47:41;7.00;;;4.50;;
70970;SDS011;58632;51.718;19.446;2023-06-10T05:50:06;7.40;;;4.80;;
70970;SDS011;58632;51.718;19.446;2023-06-10T05:52:34;7.70;;;4.50;;
70970;SDS011;58632;51.718;19.446;2023-06-10T05:55:00;6.70;;;4.30;;
70970;SDS011;58632;51.718;19.446;2023-06-10T05:57:25;9.60;;;4.60;;
70970;SDS011;58632;51.718;19.446;2023-06-10T05:59:51;9.60;;;4.50;;
70970;SDS011;58632;51.718;19.446;2023-06-10T06:02:17;8.30;;;4.80;;
70970;SDS011;58632;51.718;19.446;2023-06-10T06:04:43;8.80;;;4.70;;
70970;SDS011;58632;51.718;19.446;2023-06-10T06:07:08;9.40;;;4.90;;
70970;SDS011;58632;51.718;19.446;2023-06-10T06:09:34;8.50;;;4.60;;
70970;SDS011;58632;51.718;19.446;2023-06-10T06:12:00;10.40;;;4.80;;
70970;SDS011;58632;51.718;19.446;2023-06-10T06:14:26;9.80;;;4.70;;
70970;SDS011;58632;51.718;19.446;2023-06-10T06:16:51;8.30;;;4.70;;
70970;SDS011;58632;51.718;19.446;2023-06-10T06:19:17;7.70;;;4.20;;
70970;SDS011;58632;51.718;19.446;2023-06-10T06:21:42;10.90;;;5.00;;
70970;SDS011;58632;51.718;19.446;2023-06-10T06:24:08;8.40;;;4.60;;
70970;SDS011;58632;51.718;19.446;2023-06-10T06:26:33;8.80;;;5.10;;
70970;SDS011;58632;51.718;19.446;2023-06-10T06:28:59;7.00;;;5.00;;
70970;SDS011;58632;51.718;19.446;2023-06-10T06:33:50;9.90;;;5.10;;
70970;SDS011;58632;51.718;19.446;2023-06-10T06:36:18;8.90;;;4.90;;
70970;SDS011;58632;51.718;19.446;2023-06-10T06:38:44;9.80;;;4.90;;
70970;SDS011;58632;51.718;19.446;2023-06-10T06:41:09;8.70;;;4.90;;
70970;SDS011;58632;51.718;19.446;2023-06-10T06:43:35;8.80;;;4.80;;
70970;SDS011;58632;51.718;19.446;2023-06-10T06:46:00;9.90;;;5.00;;
70970;SDS011;58632;51.718;19.446;2023-06-10T06:48:26;12.80;;;4.90;;
70970;SDS011;58632;51.718;19.446;2023-06-10T06:53:17;9.00;;;5.40;;
70970;SDS011;58632;51.718;19.446;2023-06-10T06:58:08;8.60;;;5.20;;
70970;SDS011;58632;51.718;19.446;2023-06-10T07:00:33;6.90;;;5.00;;
70970;SDS011;58632;51.718;19.446;2023-06-10T07:05:25;10.00;;;4.70;;
70970;SDS011;58632;51.718;19.446;2023-06-10T07:07:53;8.50;;;5.30;;
70970;SDS011;58632;51.718;19.446;2023-06-10T07:10:24;8.90;;;4.60;;
70970;SDS011;58632;51.718;19.446;2023-06-10T07:12:50;9.00;;;4.90;;
70970;SDS011;58632;51.718;19.446;2023-06-10T07:15:18;7.70;;;4.90;;
70970;SDS011;58632;51.718;19.446;2023-06-10T07:17:44;7.80;;;5.10;;
70970;SDS011;58632;51.718;19.446;2023-06-10T07:20:09;9.70;;;5.20;;
70970;SDS011;58632;51.718;19.446;2023-06-10T07:22:35;11.00;;;5.40;;
70970;SDS011;58632;51.718;19.446;2023-06-10T07:25:01;7.80;;;5.10;;
70970;SDS011;58632;51.718;19.446;2023-06-10T07:27:27;9.10;;;5.30;;
70970;SDS011;58632;51.718;19.446;2023-06-10T07:29:52;10.60;;;4.50;;
70970;SDS011;58632;51.718;19.446;2023-06-10T07:32:18;9.30;;;5.00;;
70970;SDS011;58632;51.718;19.446;2023-06-10T07:34:51;9.90;;;5.10;;
70970;SDS011;58632;51.718;19.446;2023-06-10T07:37:16;8.00;;;4.90;;
70970;SDS011;58632;51.718;19.446;2023-06-10T07:39:42;9.10;;;5.40;;
70970;SDS011;58632;51.718;19.446;2023-06-10T07:42:08;7.90;;;4.10;;
70970;SDS011;58632;51.718;19.446;2023-06-10T07:44:35;7.40;;;4.30;;
70970;SDS011;58632;51.718;19.446;2023-06-10T07:47:00;7.40;;;4.70;;
70970;SDS011;58632;51.718;19.446;2023-06-10T07:49:26;7.70;;;4.60;;
70970;SDS011;58632;51.718;19.446;2023-06-10T07:51:53;6.30;;;4.50;;
70970;SDS011;58632;51.718;19.446;2023-06-10T07:54:22;9.30;;;4.40;;
70970;SDS011;58632;51.718;19.446;2023-06-10T07:56:47;8.50;;;4.90;;
70970;SDS011;58632;51.718;19.446;2023-06-10T07:59:13;6.30;;;4.80;;
70970;SDS011;58632;51.718;19.446;2023-06-10T08:01:39;7.40;;;4.50;;
70970;SDS011;58632;51.718;19.446;2023-06-10T08:04:08;7.30;;;5.00;;
70970;SDS011;58632;51.718;19.446;2023-06-10T08:08:59;7.90;;;4.50;;
70970;SDS011;58632;51.718;19.446;2023-06-10T08:11:25;8.00;;;4.60;;
70970;SDS011;58632;51.718;19.446;2023-06-10T08:13:53;8.30;;;4.80;;
70970;SDS011;58632;51.718;19.446;2023-06-10T08:16:19;5.90;;;3.90;;
70970;SDS011;58632;51.718;19.446;2023-06-10T08:18:45;7.60;;;3.60;;
70970;SDS011;58632;51.718;19.446;2023-06-10T08:21:10;6.50;;;4.40;;
70970;SDS011;58632;51.718;19.446;2023-06-10T08:23:36;6.30;;;4.70;;
70970;SDS011;58632;51.718;19.446;2023-06-10T08:26:02;6.80;;;4.60;;
70970;SDS011;58632;51.718;19.446;2023-06-10T08:28:27;9.00;;;5.10;;
70970;SDS011;58632;51.718;19.446;2023-06-10T08:30:53;7.40;;;4.00;;
70970;SDS011;58632;51.718;19.446;2023-06-10T08:33:19;6.50;;;4.20;;
70970;SDS011;58632;51.718;19.446;2023-06-10T08:35:44;5.30;;;3.50;;
70970;SDS011;58632;51.718;19.446;2023-06-10T08:38:12;6.50;;;4.10;;
70970;SDS011;58632;51.718;19.446;2023-06-10T08:40:38;6.20;;;3.90;;
70970;SDS011;58632;51.718;19.446;2023-06-10T08:45:32;7.50;;;3.80;;
70970;SDS011;58632;51.718;19.446;2023-06-10T08:48:00;9.30;;;3.70;;
70970;SDS011;58632;51.718;19.446;2023-06-10T08:50:32;5.30;;;3.80;;
70970;SDS011;58632;51.718;19.446;2023-06-10T08:53:01;8.40;;;3.70;;
70970;SDS011;58632;51.718;19.446;2023-06-10T08:55:31;8.00;;;3.70;;
70970;SDS011;58632;51.718;19.446;2023-06-10T08:58:01;6.40;;;3.90;;
70970;SDS011;58632;51.718;19.446;2023-06-10T09:00:28;6.20;;;4.00;;
70970;SDS011;58632;51.718;19.446;2023-06-10T09:02:55;7.50;;;4.40;;
70970;SDS011;58632;51.718;19.446;2023-06-10T09:05:22;7.30;;;4.30;;
70970;SDS011;58632;51.718;19.446;2023-06-10T09:07:48;9.10;;;4.40;;
70970;SDS011;58632;51.718;19.446;2023-06-10T09:10:14;7.10;;;4.40;;
70970;SDS011;58632;51.718;19.446;2023-06-10T09:12:42;11.30;;;4.30;;
70970;SDS011;58632;51.718;19.446;2023-06-10T09:15:08;7.30;;;4.10;;
70970;SDS011;58632;51.718;19.446;2023-06-10T09:17:34;9.60;;;4.30;;
70970;SDS011;58632;51.718;19.446;2023-06-10T09:20:02;8.70;;;4.10;;
70970;SDS011;58632;51.718;19.446;2023-06-10T09:25:06;5.60;;;4.00;;
70970;SDS011;58632;51.718;19.446;2023-06-10T09:27:48;9.00;;;3.80;;
70970;SDS011;58632;51.718;19.446;2023-06-10T09:30:24;8.30;;;3.70;;
70970;SDS011;58632;51.718;19.446;2023-06-10T09:33:00;11.70;;;3.60;;
70970;SDS011;58632;51.718;19.446;2023-06-10T09:35:28;5.40;;;3.50;;
70970;SDS011;58632;51.718;19.446;2023-06-10T09:37:55;6.20;;;3.90;;
70970;SDS011;58632;51.718;19.446;2023-06-10T09:40:22;6.50;;;3.70;;
70970;SDS011;58632;51.718;19.446;2023-06-10T09:42:52;9.10;;;3.50;;
70970;SDS011;58632;51.718;19.446;2023-06-10T09:45:20;7.40;;;3.70;;
70970;SDS011;58632;51.718;19.446;2023-06-10T09:47:46;7.80;;;4.00;;
70970;SDS011;58632;51.718;19.446;2023-06-10T09:50:12;5.60;;;3.40;;
70970;SDS011;58632;51.718;19.446;2023-06-10T09:52:38;5.80;;;3.40;;
70970;SDS011;58632;51.718;19.446;2023-06-10T09:55:07;5.90;;;3.20;;
70970;SDS011;58632;51.718;19.446;2023-06-10T09:57:37;7.00;;;3.50;;
70970;SDS011;58632;51.718;19.446;2023-06-10T10:00:07;8.50;;;3.30;;
70970;SDS011;58632;51.718;19.446;2023-06-10T10:02:43;9.30;;;3.50;;
70970;SDS011;58632;51.718;19.446;2023-06-10T10:05:12;5.50;;;3.30;;
70970;SDS011;58632;51.718;19.446;2023-06-10T10:07:39;5.60;;;3.50;;
70970;SDS011;58632;51.718;19.446;2023-06-10T10:12:32;7.90;;;3.80;;
70970;SDS011;58632;51.718;19.446;2023-06-10T10:17:24;6.50;;;3.30;;
70970;SDS011;58632;51.718;19.446;2023-06-10T10:22:25;6.70;;;3.20;;
70970;SDS011;58632;51.718;19.446;2023-06-10T10:25:13;6.90;;;3.70;;
70970;SDS011;58632;51.718;19.446;2023-06-10T10:27:45;6.20;;;2.80;;
70970;SDS011;58632;51.718;19.446;2023-06-10T10:30:14;5.50;;;3.20;;
70970;SDS011;58632;51.718;19.446;2023-06-10T10:32:45;4.80;;;3.30;;
70970;SDS011;58632;51.718;19.446;2023-06-10T10:35:17;10.80;;;3.40;;
70970;SDS011;58632;51.718;19.446;2023-06-10T10:37:48;4.90;;;3.30;;
70970;SDS011;58632;51.718;19.446;2023-06-10T10:40:17;8.50;;;3.30;;
70970;SDS011;58632;51.718;19.446;2023-06-10T10:42:44;7.80;;;3.40;;
70970;SDS011;58632;51.718;19.446;2023-06-10T10:45:10;6.60;;;3.00;;
70970;SDS011;58632;51.718;19.446;2023-06-10T10:47:36;6.20;;;3.10;;
70970;SDS011;58632;51.718;19.446;2023-06-10T10:50:12;9.40;;;3.20;;
70970;SDS011;58632;51.718;19.446;2023-06-10T10:52:56;3.90;;;3.20;;
70970;SDS011;58632;51.718;19.446;2023-06-10T10:55:25;4.60;;;3.10;;
70970;SDS011;58632;51.718;19.446;2023-06-10T10:58:08;7.00;;;3.20;;
70970;SDS011;58632;51.718;19.446;2023-06-10T11:00:35;3.70;;;2.90;;
70970;SDS011;58632;51.718;19.446;2023-06-10T11:08:04;7.70;;;3.60;;
70970;SDS011;58632;51.718;19.446;2023-06-10T11:10:32;5.80;;;3.00;;
70970;SDS011;58632;51.718;19.446;2023-06-10T11:12:59;8.60;;;3.80;;
70970;SDS011;58632;51.718;19.446;2023-06-10T11:15:28;12.70;;;3.20;;
70970;SDS011;58632;51.718;19.446;2023-06-10T11:21:05;6.00;;;3.10;;
70970;SDS011;58632;51.718;19.446;2023-06-10T11:23:34;7.60;;;3.60;;
70970;SDS011;58632;51.718;19.446;2023-06-10T11:31:22;5.50;;;2.90;;
70970;SDS011;58632;51.718;19.446;2023-06-10T11:33:52;8.90;;;3.20;;
70970;SDS011;58632;51.718;19.446;2023-06-10T11:36:19;6.30;;;3.00;;
70970;SDS011;58632;51.718;19.446;2023-06-10T11:38:45;7.10;;;3.10;;
70970;SDS011;58632;51.718;19.446;2023-06-10T11:41:11;5.80;;;3.00;;
70970;SDS011;58632;51.718;19.446;2023-06-10T11:46:09;4.90;;;2.90;;
70970;SDS011;58632;51.718;19.446;2023-06-10T11:48:35;6.80;;;3.00;;
70970;SDS011;58632;51.718;19.446;2023-06-10T11:51:00;5.80;;;3.60;;
70970;SDS011;58632;51.718;19.446;2023-06-10T11:53:30;7.50;;;3.20;;
70970;SDS011;58632;51.718;19.446;2023-06-10T11:55:55;7.20;;;3.50;;
70970;SDS011;58632;51.718;19.446;2023-06-10T11:58:21;5.80;;;2.90;;
70970;SDS011;58632;51.718;19.446;2023-06-10T12:00:54;5.00;;;3.10;;
70970;SDS011;58632;51.718;19.446;2023-06-10T12:03:23;9.00;;;3.90;;
70970;SDS011;58632;51.718;19.446;2023-06-10T12:05:56;6.00;;;3.20;;
70970;SDS011;58632;51.718;19.446;2023-06-10T12:08:23;9.00;;;3.10;;
70970;SDS011;58632;51.718;19.446;2023-06-10T12:10:49;4.80;;;3.30;;
70970;SDS011;58632;51.718;19.446;2023-06-10T12:13:15;5.60;;;3.10;;
70970;SDS011;58632;51.718;19.446;2023-06-10T12:15:43;6.60;;;3.30;;
70970;SDS011;58632;51.718;19.446;2023-06-10T12:18:30;5.80;;;3.40;;
70970;SDS011;58632;51.718;19.446;2023-06-10T12:20:55;6.00;;;3.50;;
70970;SDS011;58632;51.718;19.446;2023-06-10T12:23:21;4.20;;;2.90;;
70970;SDS011;58632;51.718;19.446;2023-06-10T12:25:50;9.40;;;3.10;;
70970;SDS011;58632;51.718;19.446;2023-06-10T12:28:17;6.40;;;3.30;;
70970;SDS011;58632;51.718;19.446;2023-06-10T12:30:46;5.20;;;3.40;;
70970;SDS011;58632;51.718;19.446;2023-06-10T12:33:20;6.60;;;3.40;;
70970;SDS011;58632;51.718;19.446;2023-06-10T12:35:50;5.90;;;3.30;;
70970;SDS011;58632;51.718;19.446;2023-06-10T12:38:22;7.10;;;3.30;;
70970;SDS011;58632;51.718;19.446;2023-06-10T12:40:54;7.20;;;3.40;;
70970;SDS011;58632;51.718;19.446;2023-06-10T12:43:27;9.00;;;3.70;;
70970;SDS011;58632;51.718;19.446;2023-06-10T12:45:53;5.80;;;3.40;;
70970;SDS011;58632;51.718;19.446;2023-06-10T12:48:20;6.20;;;3.50;;
70970;SDS011;58632;51.718;19.446;2023-06-10T12:50:52;6.90;;;3.20;;
70970;SDS011;58632;51.718;19.446;2023-06-10T12:55:49;5.40;;;3.00;;
70970;SDS011;58632;51.718;19.446;2023-06-10T12:58:15;4.50;;;2.90;;
70970;SDS011;58632;51.718;19.446;2023-06-10T13:00:41;6.50;;;3.00;;
70970;SDS011;58632;51.718;19.446;2023-06-10T13:03:07;5.80;;;3.00;;
70970;SDS011;58632;51.718;19.446;2023-06-10T13:05:35;6.30;;;3.40;;
70970;SDS011;58632;51.718;19.446;2023-06-10T13:08:04;7.70;;;3.40;;
70970;SDS011;58632;51.718;19.446;2023-06-10T13:10:35;8.10;;;3.30;;
70970;SDS011;58632;51.718;19.446;2023-06-10T13:13:04;5.30;;;3.40;;
70970;SDS011;58632;51.718;19.446;2023-06-10T13:15:32;5.80;;;3.30;;
70970;SDS011;58632;51.718;19.446;2023-06-10T13:18:01;8.30;;;3.80;;
70970;SDS011;58632;51.718;19.446;2023-06-10T13:20:29;8.00;;;3.30;;
70970;SDS011;58632;51.718;19.446;2023-06-10T13:22:55;6.50;;;3.10;;
70970;SDS011;58632;51.718;19.446;2023-06-10T13:25:20;12.60;;;3.40;;
70970;SDS011;58632;51.718;19.446;2023-06-10T13:27:46;5.70;;;3.50;;
70970;SDS011;58632;51.718;19.446;2023-06-10T13:30:11;8.80;;;3.80;;
70970;SDS011;58632;51.718;19.446;2023-06-10T13:32:37;7.30;;;3.40;;
70970;SDS011;58632;51.718;19.446;2023-06-10T13:35:03;7.90;;;3.80;;
70970;SDS011;58632;51.718;19.446;2023-06-10T13:37:29;7.80;;;3.30;;
70970;SDS011;58632;51.718;19.446;2023-06-10T13:39:57;5.20;;;3.60;;
70970;SDS011;58632;51.718;19.446;2023-06-10T13:42:23;6.90;;;4.20;;
70970;SDS011;58632;51.718;19.446;2023-06-10T13:44:51;7.80;;;3.70;;
70970;SDS011;58632;51.718;19.446;2023-06-10T13:47:17;6.00;;;3.40;;
70970;SDS011;58632;51.718;19.446;2023-06-10T13:49:45;6.70;;;3.50;;
70970;SDS011;58632;51.718;19.446;2023-06-10T13:52:11;9.00;;;3.70;;
70970;SDS011;58632;51.718;19.446;2023-06-10T13:54:39;5.80;;;3.10;;
70970;SDS011;58632;51.718;19.446;2023-06-10T13:57:05;6.60;;;3.30;;
70970;SDS011;58632;51.718;19.446;2023-06-10T13:59:35;5.70;;;3.40;;
70970;SDS011;58632;51.718;19.446;2023-06-10T14:02:02;9.40;;;3.30;;
70970;SDS011;58632;51.718;19.446;2023-06-10T14:04:29;5.00;;;3.10;;
70970;SDS011;58632;51.718;19.446;2023-06-10T14:06:55;6.50;;;3.30;;
70970;SDS011;58632;51.718;19.446;2023-06-10T14:09:22;5.80;;;3.40;;
70970;SDS011;58632;51.718;19.446;2023-06-10T14:11:48;5.20;;;3.20;;
70970;SDS011;58632;51.718;19.446;2023-06-10T14:14:14;9.60;;;3.30;;
70970;SDS011;58632;51.718;19.446;2023-06-10T14:16:40;6.90;;;3.50;;
70970;SDS011;58632;51.718;19.446;2023-06-10T14:19:05;9.40;;;3.50;;
70970;SDS011;58632;51.718;19.446;2023-06-10T14:21:31;7.60;;;3.20;;
70970;SDS011;58632;51.718;19.446;2023-06-10T14:23:56;6.10;;;3.20;;
70970;SDS011;58632;51.718;19.446;2023-06-10T14:26:22;6.80;;;3.50;;
70970;SDS011;58632;51.718;19.446;2023-06-10T14:28:48;4.90;;;3.20;;
70970;SDS011;58632;51.718;19.446;2023-06-10T14:31:15;9.10;;;3.30;;
70970;SDS011;58632;51.718;19.446;2023-06-10T14:33:41;5.10;;;3.20;;
70970;SDS011;58632;51.718;19.446;2023-06-10T14:36:08;6.10;;;3.50;;
70970;SDS011;58632;51.718;19.446;2023-06-10T14:38:34;5.70;;;3.40;;
70970;SDS011;58632;51.718;19.446;2023-06-10T14:41:00;8.70;;;2.90;;
70970;SDS011;58632;51.718;19.446;2023-06-10T14:43:26;4.80;;;2.90;;
70970;SDS011;58632;51.718;19.446;2023-06-10T14:45:51;6.20;;;4.50;;
70970;SDS011;58632;51.718;19.446;2023-06-10T14:48:17;7.10;;;3.70;;
70970;SDS011;58632;51.718;19.446;2023-06-10T14:50:42;8.90;;;5.10;;
70970;SDS011;58632;51.718;19.446;2023-06-10T14:53:12;8.90;;;4.90;;
70970;SDS011;58632;51.718;19.446;2023-06-10T14:55:37;6.30;;;4.40;;
70970;SDS011;58632;51.718;19.446;2023-06-10T14:58:03;7.40;;;3.30;;
70970;SDS011;58632;51.718;19.446;2023-06-10T15:00:28;8.80;;;4.00;;
70970;SDS011;58632;51.718;19.446;2023-06-10T15:02:54;7.90;;;4.40;;
70970;SDS011;58632;51.718;19.446;2023-06-10T15:05:23;5.10;;;3.90;;
70970;SDS011;58632;51.718;19.446;2023-06-10T15:07:51;10.60;;;3.40;;
70970;SDS011;58632;51.718;19.446;2023-06-10T15:10:17;10.30;;;3.30;;
70970;SDS011;58632;51.718;19.446;2023-06-10T15:15:08;4.30;;;3.00;;
70970;SDS011;58632;51.718;19.446;2023-06-10T15:17:34;6.40;;;3.30;;
70970;SDS011;58632;51.718;19.446;2023-06-10T15:20:00;5.60;;;3.30;;
70970;SDS011;58632;51.718;19.446;2023-06-10T15:22:26;7.40;;;3.30;;
70970;SDS011;58632;51.718;19.446;2023-06-10T15:24:51;6.70;;;3.10;;
70970;SDS011;58632;51.718;19.446;2023-06-10T15:27:17;7.60;;;3.50;;
70970;SDS011;58632;51.718;19.446;2023-06-10T15:29:42;8.70;;;4.30;;
70970;SDS011;58632;51.718;19.446;2023-06-10T15:32:08;7.50;;;3.90;;